Cranford, NJ (07016)

1:28 PM EST on November 27, 2014 (GMT -0500)
Garwood | Change Station
CLOSE
Current Station
Personal Weather Station
Location: Garwood, NJ
Elevation: 102 ft
Nearby Weather Stations

Elev 102 ft 40.65 °N, 74.33 °W | Updated 11 minutes ago

Overcast
Overcast
36.3 °F
Feels Like 36 °F
N
0.0
Wind Variable Wind from North

Today
High -- | Low -- °F
--% Chance of Precip.
Yesterday
High -- | Low -- °F
Precip. -- in
6:57 AM 4:31 PM
Waxing Crescent, 31% visible
Pressure 30.00 in
Visibility 7.0 miles
Clouds Overcast 1300 ft
Windchill 36 °F
Dew Point 34 °F
Humidity 91%
Rainfall 0.30 in
Snow Depth Not available.
UV 1 out of 12
Pollen .10 out of 12
Air Quality Not available.
Flu Activity Not available.
METAR KLDJ 271815Z AUTO 32005KT 7SM -DZ OVC013 05/03 A3000 RMK AO2 T00490025

More Conditions Fewer Conditions

Pressure 30.00 in
Visibility 7.0 miles
Clouds Overcast 1300 ft
Windchill 36 °F
Dew Point 34 °F
Humidity 91%
Rainfall 0.30 in
Snow Depth Not available.
UV 1 out of 12
Pollen .10 out of 12
Air Quality Not available.
Flu Activity Not available.
METAR KLDJ 271815Z AUTO 32005KT 7SM -DZ OVC013 05/03 A3000 RMK AO2 T00490025

More Conditions Fewer Conditions

10-Day Weather Forecast

Almanac

Astronomy

Nov. 27, 2014 Rise Set
Actual Time
Civil Twilight
Nautical Twilight
Astronomical Twilight
Moon
Length of Visible Light
Length of Day
Tomorrow will be .
, % of the Moon is Illuminated

Today's Extremes

State Highs State Lows

Community

WunderPhotos

Upload Photos

1,774,079 photos uploaded!

WunderBlogs® & News

Nearby

Air Quality

  Air Quality AQ Index Pollutant
Not available.

Snow Depth

Station Depth Elevation

Earthquake Activity

City Distance Mag. Time & Date
Minimum magnitude displayed is 2.5.

Coastal Water Temperatures

Place Temperature

Nearby Weather Stations